Time;durP1;ratioP1;P1;durP2;ratioP2;P2;SDS_P1;SDS_P2;PMS_P1;PMS_P2;Temp;Humidity;BMP_temperature;BMP_pressure;BME280_temperature;BME280_humidity;BME280_pressure;Samples;Min_cycle;Max_cycle;Signal;HPM_P1;HPM_P2
2021/05/06 00:33:50;;;;;;;;;;;10.20;65.70;;;;;;5006563;28;20117;-84
2021/05/06 00:36:15;;;;;;;6.93;3.43;;;10.20;64.90;;;;;;5017122;28;20000;-83
2021/05/06 00:38:57;;;;;;;8.13;3.80;;;10.20;64.80;;;;;;4993921;28;20121;-84
2021/05/06 00:54:14;;;;;;;6.60;2.80;;;10.10;65.40;;;;;;5003586;28;20033;-83
2021/05/06 00:55:04;;;;;;;8.47;2.97;;;10.10;65.40;;;;;;5004676;28;20457;-84
2021/05/06 01:00:31;;;;;;;6.77;2.40;;;10.10;65.40;;;;;;5010476;28;20026;-83
2021/05/06 01:03:11;;;;;;;5.87;2.20;;;10.10;65.20;;;;;;5009104;28;20105;-83
2021/05/06 01:05:40;;;;;;;5.53;2.73;;;10.10;65.00;;;;;;5000630;28;20084;-83
2021/05/06 01:08:18;;;;;;;6.23;2.33;;;10.10;65.10;;;;;;4992636;28;20025;-83
2021/05/06 01:13:30;;;;;;;3.83;1.57;;;10.10;65.20;;;;;;5010936;28;20040;-83
2021/05/06 01:15:56;;;;;;;2.90;1.57;;;10.00;65.00;;;;;;4994595;28;20471;-84
2021/05/06 01:18:22;;;;;;;5.57;1.90;;;10.00;64.80;;;;;;4996231;28;20379;-84
2021/05/06 01:20:53;;;;;;;4.73;1.93;;;10.00;64.80;;;;;;5009367;28;20114;-84
2021/05/06 01:23:23;;;;;;;6.70;2.20;;;10.00;64.60;;;;;;4993021;28;20109;-83
2021/05/06 01:26:26;;;;;;;5.13;2.40;;;10.00;64.60;;;;;;4993220;28;20426;-84
2021/05/06 01:28:55;;;;;;;;;;;10.10;64.80;;;;;;4987444;28;20026;-84
2021/05/06 01:31:22;;;;;;;3.07;2.00;;;10.10;64.50;;;;;;4993776;28;19913;-84
2021/05/06 01:33:59;;;;;;;4.33;1.80;;;10.00;64.50;;;;;;4989987;28;20403;-84
2021/05/06 01:36:30;;;;;;;3.47;1.40;;;10.00;64.80;;;;;;4993468;28;20482;-83
2021/05/06 01:41:49;;;;;;;3.83;1.70;;;9.90;65.10;;;;;;5010431;28;20061;-84
2021/05/06 01:47:13;;;;;;;5.63;1.83;;;9.90;65.70;;;;;;5009039;28;20026;-83
2021/05/06 01:58:16;;;;;;;8.17;3.03;;;9.70;65.80;;;;;;5004256;28;20032;-82
2021/05/06 02:00:35;;;;;;;6.13;2.43;;;9.70;66.00;;;;;;5004564;28;20494;-84
2021/05/06 02:03:17;;;;;;;3.37;1.97;;;9.60;66.10;;;;;;5004848;28;20030;-83
2021/05/06 02:05:43;;;;;;;4.35;1.63;;;9.50;66.30;;;;;;5008883;28;20030;-83
2021/05/06 02:08:09;;;;;;;5.73;2.10;;;9.60;66.30;;;;;;4990258;28;20045;-83
2021/05/06 02:10:35;;;;;;;4.27;2.20;;;9.50;66.30;;;;;;5006733;28;20569;-83
2021/05/06 02:13:01;;;;;;;7.70;1.90;;;9.50;66.50;;;;;;4991087;28;20025;-83
2021/05/06 02:15:30;;;;;;;2.87;1.90;;;9.50;66.50;;;;;;4992433;28;20213;-83
2021/05/06 02:17:57;;;;;;;2.70;1.73;;;9.50;66.80;;;;;;5007972;28;20394;-84
2021/05/06 02:20:23;;;;;;;3.67;2.03;;;9.60;66.60;;;;;;4991117;28;20481;-84
2021/05/06 02:22:51;;;;;;;3.50;2.07;;;9.60;66.40;;;;;;5013498;28;20061;-83
2021/05/06 02:25:18;;;;;;;2.90;1.77;;;9.60;66.20;;;;;;4995474;28;20025;-84
2021/05/06 02:27:44;;;;;;;3.47;1.70;;;9.50;66.40;;;;;;4996479;28;20036;-84
2021/05/06 02:30:10;;;;;;;4.73;1.60;;;9.50;67.10;;;;;;5007697;28;20030;-84
2021/05/06 02:32:37;;;;;;;6.60;2.10;;;9.50;66.70;;;;;;4996206;28;20026;-84
2021/05/06 02:35:03;;;;;;;5.90;2.00;;;9.50;66.60;;;;;;4988951;28;20819;-84
2021/05/06 02:37:29;;;;;;;3.60;2.13;;;9.40;66.50;;;;;;4995047;28;20033;-84
2021/05/06 02:39:55;;;;;;;3.83;1.87;;;9.40;66.70;;;;;;5014026;28;20037;-84
2021/05/06 02:42:22;;;;;;;2.43;1.73;;;9.40;66.80;;;;;;4997229;28;20140;-84
2021/05/06 02:44:52;;;;;;;4.07;2.13;;;9.30;66.70;;;;;;4990069;28;20457;-84
2021/05/06 02:47:18;;;;;;;4.27;1.50;;;9.30;66.40;;;;;;4997323;28;20036;-84
2021/05/06 02:49:46;;;;;;;4.03;1.30;;;9.30;66.30;;;;;;5013952;28;20053;-84
2021/05/06 02:53:02;;;;;;;3.10;1.50;;;9.30;66.40;;;;;;4996200;28;20038;-84
2021/05/06 02:57:39;;;;;;;3.45;1.83;;;9.40;66.40;;;;;;5014926;28;20026;-84
2021/05/06 03:03:06;;;;;;;5.23;1.73;;;9.40;66.20;;;;;;4955006;28;20056;-85
2021/05/06 03:05:36;;;;;;;3.20;1.83;;;9.40;65.90;;;;;;5009822;28;20026;-86
2021/05/06 03:10:56;;;;;;;3.40;1.43;;;9.40;65.60;;;;;;5013180;28;20072;-86
2021/05/06 03:23:47;;;;;;;2.70;1.30;;;9.30;65.40;;;;;;5013272;28;20124;-85
2021/05/06 03:26:14;;;;;;;2.33;1.30;;;9.30;65.30;;;;;;4996180;28;20088;-85
2021/05/06 03:28:44;;;;;;;6.90;1.70;;;9.30;65.20;;;;;;5013695;28;20565;-85
2021/05/06 03:31:21;;;;;;;4.60;1.40;;;9.20;65.20;;;;;;4995584;28;20125;-85
2021/05/06 03:42:19;;;;;;;9.40;3.63;;;9.20;65.80;;;;;;5012465;28;20461;-85
2021/05/06 03:46:10;;;;;;;8.83;3.00;;;9.20;65.70;;;;;;4995492;28;20033;-85
2021/05/06 03:48:11;;;;;;;5.83;2.47;;;9.10;65.60;;;;;;4993560;28;20509;-85
2021/05/06 04:17:19;;;;;;;10.37;2.63;;;9.00;66.60;;;;;;5012206;28;20026;-84
2021/05/06 04:38:35;;;;;;;5.60;2.33;;;8.90;66.90;;;;;;5005975;28;20038;-85
2021/05/06 04:41:25;;;;;;;6.23;3.33;;;9.00;66.90;;;;;;5009128;28;20054;-85
2021/05/06 04:55:23;;;;;;;12.80;2.90;;;9.10;66.10;;;;;;5007263;28;20615;-85
2021/05/06 05:05:51;;;;;;;4.47;2.43;;;9.20;65.90;;;;;;5006778;28;20037;-85
2021/05/06 05:08:18;;;;;;;8.90;2.20;;;9.20;65.60;;;;;;5011366;28;20022;-85
2021/05/06 05:11:21;;;;;;;7.70;2.40;;;9.30;65.30;;;;;;5010893;28;20558;-85
2021/05/06 05:27:02;;;;;;;5.77;2.37;;;9.40;64.30;;;;;;4926861;28;20035;-85
2021/05/06 05:29:28;;;;;;;8.90;2.90;;;9.50;64.30;;;;;;4938125;29;20043;-85
2021/05/06 05:31:54;;;;;;;14.47;4.60;;;9.60;64.20;;;;;;4935919;29;20527;-85
2021/05/06 05:34:36;;;;;;;16.90;3.50;;;9.60;64.10;;;;;;4943493;28;20035;-85
2021/05/06 05:37:02;;;;;;;11.30;3.43;;;9.70;64.10;;;;;;4931354;29;20031;-85
2021/05/06 05:39:56;;;;;;;13.67;4.03;;;9.70;64.10;;;;;;4946903;28;20042;-85
2021/05/06 05:48:10;;;;;;;8.90;2.97;;;9.90;64.40;;;;;;5001223;28;20131;-84
2021/05/06 05:55:59;;;;;;;11.03;3.27;;;9.90;65.00;;;;;;5015922;28;20452;-85
2021/05/06 05:58:25;;;;;;;8.70;3.20;;;10.00;65.00;;;;;;4997510;28;20026;-84
2021/05/06 06:00:51;;;;;;;12.53;3.60;;;10.00;64.80;;;;;;5015050;28;20033;-85
2021/05/06 06:03:17;;;;;;;8.37;3.70;;;10.10;64.90;;;;;;5012135;28;20034;-84
2021/05/06 06:05:43;;;;;;;6.13;3.73;;;10.10;64.90;;;;;;4991214;28;20073;-84
2021/05/06 06:08:09;;;;;;;7.70;3.63;;;10.10;64.90;;;;;;4996220;28;20038;-84
2021/05/06 06:10:34;;;;;;;11.00;3.37;;;10.10;65.10;;;;;;4993872;28;20030;-84
2021/05/06 06:13:00;;;;;;;10.97;3.80;;;10.20;65.20;;;;;;4996660;28;20125;-84
2021/05/06 06:16:10;;;;;;;7.00;3.20;;;10.20;65.10;;;;;;4994991;28;20446;-84
2021/05/06 06:18:23;;;;;;;10.13;3.10;;;10.30;65.10;;;;;;5008878;28;20057;-84
2021/05/06 06:20:57;;;;;;;13.23;3.40;;;10.40;65.00;;;;;;4992308;28;20045;-84
2021/05/06 06:23:23;;;;;;;6.37;2.93;;;10.40;64.90;;;;;;4994973;28;20084;-84
2021/05/06 06:25:49;;;;;;;8.70;2.73;;;10.40;65.00;;;;;;4997071;28;20547;-84
2021/05/06 06:28:15;;;;;;;7.30;3.40;;;10.50;65.10;;;;;;4995947;28;20029;-85
2021/05/06 06:30:41;;;;;;;6.80;2.93;;;10.50;65.20;;;;;;4989938;28;20037;-84
2021/05/06 06:33:07;;;;;;;7.43;2.83;;;10.50;65.20;;;;;;4997303;28;20022;-84
2021/05/06 06:35:33;;;;;;;5.03;2.97;;;10.50;65.30;;;;;;4995867;28;20027;-84
2021/05/06 06:37:59;;;;;;;6.37;3.40;;;10.50;65.30;;;;;;4996126;28;20029;-84
2021/05/06 06:40:24;;;;;;;7.40;3.00;;;10.50;65.90;;;;;;4992452;28;20372;-84
2021/05/06 06:42:50;;;;;;;8.23;3.03;;;10.60;65.30;;;;;;4994398;28;20022;-84
2021/05/06 06:45:20;;;;;;;6.33;2.77;;;10.60;65.10;;;;;;4995983;28;20030;-85
2021/05/06 06:47:56;;;;;;;4.00;2.70;;;10.70;64.90;;;;;;4994052;28;20022;-85
2021/05/06 06:50:22;;;;;;;7.63;2.73;;;10.70;64.60;;;;;;5011400;28;20105;-84
2021/05/06 06:52:49;;;;;;;7.80;3.07;;;10.70;64.30;;;;;;4995187;28;20033;-84
2021/05/06 06:55:15;;;;;;;7.37;3.90;;;10.70;64.20;;;;;;4991411;28;20033;-84
2021/05/06 06:57:40;;;;;;;7.47;3.27;;;10.70;64.30;;;;;;4995283;28;20109;-84
2021/05/06 07:00:07;;;;;;;7.67;3.20;;;10.80;64.50;;;;;;4996416;28;20117;-84
2021/05/06 07:02:34;;;;;;;10.53;3.57;;;10.90;64.20;;;;;;5014429;28;20029;-84
2021/05/06 07:05:00;;;;;;;11.50;3.20;;;11.00;63.90;;;;;;4994930;28;20041;-84
2021/05/06 07:07:45;;;;;;;8.33;2.80;;;11.10;63.70;;;;;;4995606;28;20025;-85
2021/05/06 07:10:11;;;;;;;6.83;3.20;;;11.10;63.40;;;;;;4995481;28;20030;-84
2021/05/06 07:12:37;;;;;;;4.10;2.43;;;11.20;63.20;;;;;;4990507;28;20033;-84
2021/05/06 07:15:03;;;;;;;5.23;2.57;;;11.30;62.80;;;;;;4991985;28;20021;-85
2021/05/06 07:17:29;;;;;;;5.97;1.90;;;11.30;62.60;;;;;;4996830;28;20056;-85
2021/05/06 07:19:54;;;;;;;4.23;2.07;;;11.40;62.50;;;;;;4995564;28;20049;-85
2021/05/06 07:22:20;;;;;;;3.90;1.70;;;11.40;62.30;;;;;;4995655;28;20022;-85
2021/05/06 07:24:46;;;;;;;7.60;1.90;;;11.50;62.00;;;;;;5012719;28;20097;-85
2021/05/06 07:27:11;;;;;;;4.87;2.13;;;11.60;61.60;;;;;;4998810;28;20026;-84
2021/05/06 07:29:37;;;;;;;4.27;2.10;;;11.70;61.40;;;;;;4995090;28;20117;-85
2021/05/06 07:32:03;;;;;;;5.03;2.30;;;11.80;61.20;;;;;;5012340;28;20037;-85
2021/05/06 07:34:29;;;;;;;4.23;2.10;;;11.90;61.10;;;;;;4993616;28;20034;-85
2021/05/06 07:36:55;;;;;;;3.57;2.30;;;11.90;60.80;;;;;;4995689;28;20030;-84
2021/05/06 07:39:20;;;;;;;7.73;2.10;;;12.00;60.40;;;;;;4993612;28;20034;-85
2021/05/06 07:41:46;;;;;;;3.83;1.87;;;12.00;60.10;;;;;;5013393;28;20100;-85
2021/05/06 07:44:16;;;;;;;18.57;2.30;;;12.10;59.70;;;;;;4997662;28;20382;-85
2021/05/06 07:46:42;;;;;;;4.83;1.67;;;12.10;59.20;;;;;;4995004;28;20034;-85
2021/05/06 07:49:07;;;;;;;5.77;2.30;;;12.20;59.00;;;;;;4991239;28;20022;-85
2021/05/06 07:51:33;;;;;;;5.97;1.73;;;12.20;58.60;;;;;;4993498;28;20040;-85
2021/05/06 07:54:06;;;;;;;2.67;1.30;;;12.20;58.30;;;;;;5001190;28;20026;-85
2021/05/06 07:56:32;;;;;;;8.52;1.60;;;12.30;57.70;;;;;;5011124;28;20022;-85
2021/05/06 07:58:57;;;;;;;7.43;1.67;;;12.40;57.90;;;;;;4993211;28;20132;-85
2021/05/06 08:01:23;;;;;;;6.90;1.77;;;12.60;57.70;;;;;;4996104;28;20030;-85
2021/05/06 08:03:49;;;;;;;7.80;1.90;;;12.70;57.70;;;;;;4993213;28;20110;-85
2021/05/06 08:06:15;;;;;;;5.83;1.70;;;13.00;56.60;;;;;;4993084;28;20065;-85
2021/05/06 08:08:40;;;;;;;5.13;1.20;;;13.20;55.80;;;;;;4994183;28;20103;-85
2021/05/06 08:11:08;;;;;;;2.87;1.20;;;13.30;55.60;;;;;;4987985;28;20486;-83
2021/05/06 08:13:34;;;;;;;1.00;0.90;;;13.60;55.10;;;;;;5005413;28;20022;-82
2021/05/06 08:16:00;;;;;;;9.53;1.33;;;13.70;54.00;;;;;;4987277;28;20030;-85
2021/05/06 08:18:26;;;;;;;4.20;1.60;;;14.00;53.40;;;;;;4994952;28;20410;-85
2021/05/06 08:20:52;;;;;;;5.00;2.30;;;14.30;52.70;;;;;;4992902;28;20033;-85
2021/05/06 08:23:18;;;;;;;9.77;2.10;;;14.50;52.10;;;;;;5008095;28;20105;-85
2021/05/06 08:25:44;;;;;;;10.43;3.30;;;14.60;51.60;;;;;;4987156;28;20117;-82
2021/05/06 08:28:10;;;;;;;9.10;2.47;;;14.80;51.20;;;;;;4988750;28;20053;-83
2021/05/06 08:30:36;;;;;;;4.77;1.30;;;14.90;50.40;;;;;;4994136;28;20022;-83
2021/05/06 08:33:03;;;;;;;6.50;2.67;;;15.00;50.30;;;;;;4990023;28;21812;-83
2021/05/06 08:35:29;;;;;;;11.50;3.27;;;15.20;49.70;;;;;;5013753;28;20029;-83
2021/05/06 08:38:07;;;;;;;10.10;4.10;;;15.10;49.40;;;;;;5050035;28;20427;-81
2021/05/06 08:40:33;;;;;;;7.97;2.27;;;15.20;49.40;;;;;;5052627;28;20195;-81
2021/05/06 08:42:59;;;;;;;5.73;1.73;;;15.30;49.10;;;;;;5026107;28;20081;-82
2021/05/06 08:45:32;;;;;;;4.33;1.70;;;15.40;48.80;;;;;;5037706;28;20027;-82
2021/05/06 08:47:58;;;;;;;3.93;1.77;;;15.50;48.50;;;;;;5022483;28;20026;-81
2021/05/06 08:50:25;;;;;;;2.83;1.30;;;15.60;48.30;;;;;;5040913;28;20539;-82
2021/05/06 08:52:52;;;;;;;4.20;1.50;;;15.80;48.10;;;;;;5004350;28;20032;-82
2021/05/06 08:55:18;;;;;;;6.32;1.20;;;15.90;47.90;;;;;;5038929;28;20027;-81
2021/05/06 08:57:44;;;;;;;3.33;0.95;;;16.00;47.60;;;;;;5025779;28;20536;-81
2021/05/06 09:00:10;;;;;;;3.28;1.02;;;16.00;47.50;;;;;;5052266;28;20490;-82
2021/05/06 09:02:36;;;;;;;3.55;1.33;;;16.10;47.20;;;;;;5032466;28;20018;-81
2021/05/06 09:05:07;;;;;;;2.67;1.10;;;16.20;47.00;;;;;;5036077;28;20565;-82
2021/05/06 09:07:33;;;;;;;4.43;1.40;;;16.20;46.50;;;;;;5039400;28;20053;-82
2021/05/06 09:09:58;;;;;;;5.57;1.33;;;16.30;46.50;;;;;;5042936;28;20468;-82
2021/05/06 09:12:36;;;;;;;7.78;1.30;;;16.30;46.30;;;;;;5051932;28;20034;-82
2021/05/06 09:15:13;;;;;;;5.68;1.08;;;16.40;46.20;;;;;;5030894;28;20027;-82
2021/05/06 09:17:38;;;;;;;3.20;1.10;;;16.50;46.20;;;;;;5029794;28;20082;-82
2021/05/06 09:20:15;;;;;;;5.18;1.48;;;16.50;46.00;;;;;;5031054;28;20026;-81
2021/05/06 09:22:45;;;;;;;4.72;0.95;;;16.50;45.90;;;;;;4996308;28;20398;-82
2021/05/06 09:25:26;;;;;;;4.25;1.13;;;16.60;45.80;;;;;;5006396;28;20057;-82
2021/05/06 09:28:16;;;;;;;2.45;0.90;;;16.70;45.00;;;;;;5039126;28;20037;-81
2021/05/06 09:30:51;;;;;;;12.82;1.52;;;16.80;44.30;;;;;;4988830;28;20487;-82
2021/05/06 09:33:38;;;;;;;2.60;1.40;;;16.90;44.50;;;;;;5006077;28;20399;-82
2021/05/06 09:36:12;;;;;;;3.78;1.67;;;16.80;44.50;;;;;;5002323;28;20042;-82
2021/05/06 09:38:46;;;;;;;3.65;1.65;;;16.80;44.40;;;;;;5010192;28;20022;-82
2021/05/06 09:41:13;;;;;;;3.45;1.20;;;16.70;44.40;;;;;;5019232;28;20411;-82
2021/05/06 09:43:44;;;;;;;3.50;1.20;;;16.70;44.40;;;;;;5013639;28;20083;-82
2021/05/06 09:46:22;;;;;;;4.03;1.65;;;16.70;44.00;;;;;;5010835;28;20034;-82
2021/05/06 09:49:00;;;;;;;4.32;1.48;;;16.80;43.90;;;;;;4998869;28;20037;-82
2021/05/06 09:51:50;;;;;;;2.97;1.27;;;16.70;43.70;;;;;;5001706;28;20027;-82
2021/05/06 09:54:27;;;;;;;3.60;1.00;;;16.70;43.30;;;;;;5005395;28;20030;-82
2021/05/06 09:57:01;;;;;;;3.83;1.20;;;16.70;43.40;;;;;;4994574;28;20030;-82
2021/05/06 09:59:38;;;;;;;4.20;1.25;;;16.60;43.00;;;;;;4985793;28;20387;-82
2021/05/06 10:02:10;;;;;;;5.15;1.67;;;16.60;43.10;;;;;;4992750;28;20027;-82
2021/05/06 10:04:37;;;;;;;;;;;16.50;43.30;;;;;;5000850;28;20134;-82
2021/05/06 10:07:07;;;;;;;5.53;1.80;;;16.50;43.80;;;;;;4995812;28;19909;-82
2021/05/06 10:09:33;;;;;;;1.73;0.93;;;16.50;43.70;;;;;;5011034;28;20031;-82
2021/05/06 10:12:00;;;;;;;5.47;1.77;;;16.40;43.60;;;;;;4991785;28;20034;-82
2021/05/06 10:14:26;;;;;;;3.90;1.80;;;16.40;43.50;;;;;;4974824;28;20121;-82
2021/05/06 10:16:52;;;;;;;4.63;1.73;;;16.40;43.50;;;;;;4977563;28;20030;-82
2021/05/06 10:19:18;;;;;;;6.60;1.50;;;16.40;43.10;;;;;;4985916;28;20049;-82
2021/05/06 10:21:45;;;;;;;3.83;1.45;;;16.30;43.20;;;;;;5006861;28;20056;-81
2021/05/06 10:24:16;;;;;;;2.35;1.48;;;16.40;43.50;;;;;;5008568;28;20037;-82
2021/05/06 10:26:45;;;;;;;9.00;1.40;;;16.30;43.50;;;;;;5004865;28;20096;-82
2021/05/06 10:29:13;;;;;;;3.40;1.17;;;16.30;43.40;;;;;;4995429;28;20525;-82
2021/05/06 10:31:40;;;;;;;2.97;1.33;;;16.30;43.10;;;;;;5009263;28;20092;-82
2021/05/06 10:34:07;;;;;;;2.63;1.13;;;16.40;43.00;;;;;;5005096;28;20088;-82
2021/05/06 10:36:34;;;;;;;5.72;1.67;;;16.40;43.20;;;;;;5010788;28;20553;-82
2021/05/06 10:39:01;;;;;;;2.45;1.20;;;16.40;43.60;;;;;;4995783;28;20041;-82
2021/05/06 10:41:34;;;;;;;2.28;1.02;;;16.40;43.00;;;;;;5008819;28;20023;-81
2021/05/06 10:44:02;;;;;;;2.72;1.20;;;16.40;43.10;;;;;;5011475;28;20022;-82
2021/05/06 10:47:03;;;;;;;4.10;0.98;;;16.40;43.20;;;;;;4991528;28;20723;-81
2021/05/06 10:49:31;;;;;;;3.08;1.45;;;16.40;43.00;;;;;;5002858;28;20025;-82
2021/05/06 10:51:59;;;;;;;3.05;1.50;;;16.40;43.10;;;;;;5003100;28;20076;-82
2021/05/06 10:54:36;;;;;;;3.95;1.63;;;16.30;43.20;;;;;;4983353;28;20028;-82
2021/05/06 10:57:28;;;;;;;4.05;1.50;;;16.30;43.30;;;;;;5005694;28;20551;-82
2021/05/06 10:59:55;;;;;;;5.43;1.75;;;16.30;43.00;;;;;;5000212;28;20049;-82
2021/05/06 11:02:39;;;;;;;2.67;1.33;;;16.40;43.10;;;;;;4999603;28;20025;-82
2021/05/06 11:05:13;;;;;;;4.85;1.20;;;16.40;43.00;;;;;;5000358;28;20026;-82
2021/05/06 11:07:40;;;;;;;4.35;1.23;;;16.50;43.10;;;;;;4993845;28;20026;-82
2021/05/06 11:10:07;;;;;;;5.50;1.38;;;16.50;43.00;;;;;;4987810;28;20514;-82
2021/05/06 11:12:40;;;;;;;5.80;2.20;;;16.60;43.00;;;;;;5003899;28;20028;-82
2021/05/06 11:15:08;;;;;;;6.47;3.03;;;16.50;42.90;;;;;;4993184;28;20034;-82
2021/05/06 11:17:37;;;;;;;4.60;1.30;;;16.60;43.10;;;;;;5001106;28;20101;-82
2021/05/06 11:20:12;;;;;;;6.35;2.42;;;16.60;42.70;;;;;;4998585;28;20018;-82
2021/05/06 11:22:48;;;;;;;6.07;2.55;;;16.60;42.60;;;;;;4988046;28;20041;-81
2021/05/06 11:25:29;;;;;;;6.65;3.90;;;16.70;42.50;;;;;;4980644;28;20050;-80
2021/05/06 11:28:00;;;;;;;11.70;4.90;;;16.70;42.40;;;;;;5003205;28;20115;-82
2021/05/06 11:30:44;;;;;;;4.00;1.20;;;16.80;42.20;;;;;;5002914;28;20129;-82
2021/05/06 11:33:16;;;;;;;7.70;1.80;;;16.90;42.00;;;;;;4983164;28;20037;-81
2021/05/06 11:36:06;;;;;;;2.50;1.80;;;16.90;41.70;;;;;;4995600;28;20026;-81
2021/05/06 11:38:35;;;;;;;2.53;1.38;;;17.00;41.90;;;;;;4999138;28;20057;-81
2021/05/06 11:41:12;;;;;;;4.72;2.47;;;17.00;42.00;;;;;;4984280;28;20472;-81
2021/05/06 11:43:48;;;;;;;6.72;3.33;;;17.10;41.80;;;;;;4992653;28;20154;-81
2021/05/06 11:46:19;;;;;;;7.13;2.05;;;17.20;41.30;;;;;;4997411;28;20041;-81
2021/05/06 11:48:57;;;;;;;4.35;2.33;;;17.10;41.20;;;;;;5007076;28;20026;-81
2021/05/06 11:51:32;;;;;;;3.58;1.80;;;17.10;41.00;;;;;;5000607;28;20033;-82
2021/05/06 11:54:18;;;;;;;2.83;1.17;;;17.10;41.10;;;;;;4988903;28;20403;-81
2021/05/06 11:56:53;;;;;;;2.08;1.25;;;17.30;40.90;;;;;;5000316;28;20174;-81
2021/05/06 11:59:21;;;;;;;4.88;1.10;;;17.40;40.30;;;;;;4997242;28;20018;-81
2021/05/06 12:01:47;;;;;;;1.45;0.90;;;17.40;40.10;;;;;;4996073;28;20022;-81
2021/05/06 12:04:22;;;;;;;2.70;0.90;;;17.40;39.70;;;;;;4995510;28;20085;-81
2021/05/06 12:06:47;;;;;;;5.93;1.10;;;17.50;38.90;;;;;;5000336;28;20030;-81
2021/05/06 12:09:24;;;;;;;3.30;1.38;;;17.40;38.90;;;;;;4982288;28;20041;-81
2021/05/06 12:11:50;;;;;;;2.15;1.02;;;17.40;38.80;;;;;;4994750;28;20498;-80
2021/05/06 12:14:16;;;;;;;2.88;1.83;;;17.50;38.90;;;;;;4989977;28;20068;-81
2021/05/06 12:16:42;;;;;;;4.32;2.13;;;17.50;38.30;;;;;;4998449;28;20842;-81
2021/05/06 12:19:12;;;;;;;5.85;1.38;;;17.40;38.50;;;;;;4989631;28;20030;-81
2021/05/06 12:21:51;;;;;;;3.03;1.25;;;17.40;38.50;;;;;;5003861;28;20033;-82
2021/05/06 12:24:32;;;;;;;4.60;1.67;;;17.40;38.30;;;;;;4987480;28;20054;-81
2021/05/06 12:27:25;;;;;;;4.25;1.20;;;17.40;38.10;;;;;;4996771;28;20117;-81
2021/05/06 12:29:51;;;;;;;;;;;17.50;37.90;;;;;;5002833;28;20088;-81
2021/05/06 12:32:17;;;;;;;3.83;1.77;;;17.40;38.50;;;;;;4990603;28;19909;-81
2021/05/06 12:34:43;;;;;;;2.80;1.38;;;17.40;38.20;;;;;;4993019;28;20023;-81
2021/05/06 12:37:09;;;;;;;2.58;1.10;;;17.40;38.20;;;;;;5000673;28;20069;-81
2021/05/06 12:39:34;;;;;;;2.58;1.20;;;17.50;37.90;;;;;;4988398;28;20081;-81
2021/05/06 12:42:04;;;;;;;5.07;0.75;;;17.50;37.60;;;;;;4996097;28;20039;-81
2021/05/06 12:44:45;;;;;;;3.10;0.90;;;17.40;37.70;;;;;;5003449;28;20032;-82
2021/05/06 12:47:15;;;;;;;2.13;0.80;;;17.50;37.00;;;;;;4981613;28;20022;-82
2021/05/06 12:49:42;;;;;;;1.83;0.80;;;17.40;37.40;;;;;;4992947;28;20062;-81
2021/05/06 12:52:27;;;;;;;2.88;0.90;;;17.40;37.40;;;;;;4991147;28;20547;-81
2021/05/06 12:54:53;;;;;;;2.25;0.60;;;17.60;37.60;;;;;;4973934;28;21253;-82
2021/05/06 12:57:19;;;;;;;1.55;0.70;;;17.60;37.60;;;;;;4982582;28;20113;-81
2021/05/06 12:59:50;;;;;;;3.88;0.95;;;17.70;37.40;;;;;;4995873;28;20046;-81
2021/05/06 13:02:19;;;;;;;1.90;0.90;;;17.70;37.10;;;;;;4979132;28;20026;-81
2021/05/06 13:04:56;;;;;;;2.65;0.77;;;17.70;36.90;;;;;;4986416;28;20022;-81
2021/05/06 13:07:22;;;;;;;3.13;1.30;;;17.70;36.80;;;;;;4996752;28;20041;-82
2021/05/06 13:09:49;;;;;;;3.80;1.00;;;17.70;36.90;;;;;;4998356;28;20117;-81
2021/05/06 13:12:23;;;;;;;1.75;1.20;;;17.70;37.10;;;;;;4990591;28;20106;-81
2021/05/06 13:14:51;;;;;;;2.33;1.33;;;17.60;37.10;;;;;;4991030;28;20113;-80
2021/05/06 13:17:29;;;;;;;3.83;2.00;;;17.60;37.50;;;;;;4996524;28;20112;-81
2021/05/06 13:19:56;;;;;;;3.90;1.73;;;17.60;37.40;;;;;;4990006;28;20035;-81
2021/05/06 13:22:23;;;;;;;4.43;1.58;;;17.60;37.70;;;;;;4973875;28;20019;-81
2021/05/06 13:24:50;;;;;;;2.40;0.90;;;17.50;37.80;;;;;;5002798;28;20395;-81
2021/05/06 13:27:19;;;;;;;1.23;0.70;;;17.50;37.90;;;;;;5004168;28;20030;-81
2021/05/06 13:30:06;;;;;;;4.38;0.75;;;17.50;38.00;;;;;;4995067;28;20030;-81
2021/05/06 13:32:37;;;;;;;2.63;0.73;;;17.50;37.70;;;;;;4993011;28;20034;-81
2021/05/06 13:35:14;;;;;;;2.05;0.65;;;17.50;38.00;;;;;;4994135;28;20042;-81
2021/05/06 13:37:43;;;;;;;2.38;0.80;;;17.40;37.80;;;;;;4998584;28;20042;-81
2021/05/06 13:40:10;;;;;;;2.83;0.88;;;17.40;38.00;;;;;;4998374;28;20105;-81
2021/05/06 13:42:37;;;;;;;2.25;0.93;;;17.50;38.20;;;;;;4994602;28;20030;-81
2021/05/06 13:45:05;;;;;;;1.98;0.70;;;17.40;38.10;;;;;;4980015;28;20027;-81
2021/05/06 13:47:31;;;;;;;4.53;1.30;;;17.40;38.20;;;;;;4976415;28;20027;-81
2021/05/06 13:49:56;;;;;;;1.35;0.70;;;17.40;38.10;;;;;;4990057;28;20105;-81
2021/05/06 13:52:25;;;;;;;3.20;0.80;;;17.40;38.20;;;;;;4996876;28;20034;-81
2021/05/06 13:54:52;;;;;;;3.88;1.10;;;17.50;38.10;;;;;;5002257;28;20038;-81
2021/05/06 13:57:19;;;;;;;2.47;0.90;;;17.50;38.10;;;;;;5005814;28;20022;-81
2021/05/06 13:59:45;;;;;;;1.75;0.80;;;17.50;38.20;;;;;;5000017;28;20072;-81
2021/05/06 14:02:11;;;;;;;5.15;0.90;;;17.60;38.20;;;;;;4994599;28;20035;-81
2021/05/06 14:04:36;;;;;;;1.35;0.70;;;17.60;38.10;;;;;;5010882;28;20500;-81
2021/05/06 14:07:02;;;;;;;2.47;1.20;;;17.50;38.40;;;;;;4992910;28;20097;-81
2021/05/06 14:09:28;;;;;;;2.15;0.75;;;17.50;38.60;;;;;;4993559;28;20109;-81
2021/05/06 14:11:54;;;;;;;2.28;0.68;;;17.50;38.60;;;;;;5000925;28;20201;-81
2021/05/06 14:14:21;;;;;;;3.00;0.80;;;17.40;38.70;;;;;;4999256;28;20026;-81
2021/05/06 14:16:47;;;;;;;3.83;1.20;;;17.40;38.80;;;;;;4995937;28;20038;-81
2021/05/06 14:19:14;;;;;;;3.65;1.20;;;17.40;38.90;;;;;;4999219;28;20026;-81
2021/05/06 14:21:42;;;;;;;4.97;1.10;;;17.40;38.90;;;;;;4996796;28;20014;-81
2021/05/06 14:24:10;;;;;;;4.50;1.52;;;17.30;38.80;;;;;;5007375;28;20038;-81
2021/05/06 14:26:37;;;;;;;3.63;1.13;;;17.40;39.10;;;;;;5011436;28;20117;-81
2021/05/06 14:29:03;;;;;;;4.25;1.60;;;17.40;39.10;;;;;;4992181;28;20110;-81
2021/05/06 14:31:29;;;;;;;2.53;0.93;;;17.30;39.00;;;;;;5005689;28;20023;-81
2021/05/06 14:33:55;;;;;;;4.82;1.80;;;17.30;38.90;;;;;;4995830;28;20044;-81
2021/05/06 14:36:21;;;;;;;1.98;1.20;;;17.30;38.90;;;;;;4995892;28;20044;-81
2021/05/06 14:38:47;;;;;;;4.00;1.20;;;17.30;38.90;;;;;;5010534;28;20026;-81
2021/05/06 14:41:13;;;;;;;4.70;2.50;;;17.30;38.70;;;;;;5010591;28;20426;-81
2021/05/06 14:43:38;;;;;;;2.78;1.20;;;17.20;38.50;;;;;;4995412;28;20433;-81
2021/05/06 14:46:05;;;;;;;4.78;0.95;;;17.20;38.70;;;;;;5010236;28;20026;-81
2021/05/06 14:48:32;;;;;;;4.30;1.00;;;17.20;38.90;;;;;;4993931;28;20494;-81
2021/05/06 14:50:58;;;;;;;2.17;0.60;;;17.20;38.90;;;;;;4999955;28;20022;-81
2021/05/06 14:53:24;;;;;;;2.83;1.10;;;17.20;38.70;;;;;;4977870;28;20027;-81
2021/05/06 14:55:50;;;;;;;2.88;1.10;;;17.20;38.70;;;;;;4975753;28;20030;-81
2021/05/06 14:58:16;;;;;;;5.35;1.08;;;17.10;38.70;;;;;;4990968;28;20494;-81
2021/05/06 15:00:42;;;;;;;2.60;0.80;;;17.10;38.70;;;;;;4975653;28;20022;-82
2021/05/06 15:03:08;;;;;;;5.32;0.82;;;17.10;38.90;;;;;;4974373;28;20025;-81
2021/05/06 15:05:34;;;;;;;4.63;1.02;;;17.10;39.00;;;;;;4974316;28;20034;-81
2021/05/06 15:08:03;;;;;;;7.45;1.25;;;17.00;39.10;;;;;;4974294;28;20462;-81
2021/05/06 15:10:32;;;;;;;2.75;1.48;;;17.00;39.10;;;;;;4983805;28;20058;-81
2021/05/06 15:12:57;;;;;;;2.38;1.23;;;17.00;39.40;;;;;;4981203;28;20133;-81
2021/05/06 15:15:23;;;;;;;3.63;1.10;;;17.00;39.50;;;;;;4999362;28;20058;-81
2021/05/06 15:17:52;;;;;;;5.05;1.42;;;17.00;39.80;;;;;;4995731;28;20061;-81
2021/05/06 15:20:23;;;;;;;6.97;1.48;;;17.00;39.80;;;;;;5000455;28;20049;-82
2021/05/06 15:22:49;;;;;;;4.47;1.33;;;17.00;39.70;;;;;;4988270;28;20065;-80
2021/05/06 15:25:15;;;;;;;3.33;1.15;;;17.00;39.80;;;;;;4978624;28;20082;-81
2021/05/06 15:27:45;;;;;;;3.83;1.55;;;17.00;39.80;;;;;;4995569;28;20399;-81
2021/05/06 15:30:13;;;;;;;5.00;1.52;;;16.90;39.90;;;;;;4994161;28;20505;-81
2021/05/06 15:32:39;;;;;;;4.13;1.85;;;17.00;40.10;;;;;;5008291;28;20519;-80
2021/05/06 15:35:15;;;;;;;21.75;13.70;;;17.00;40.10;;;;;;4991940;28;20053;-81
2021/05/06 15:37:41;;;;;;;8.65;4.20;;;17.00;40.20;;;;;;5000615;28;20447;-81
2021/05/06 15:40:10;;;;;;;82.35;74.32;;;16.90;40.40;;;;;;5000062;28;20042;-81
2021/05/06 15:42:37;;;;;;;20.67;18.58;;;16.90;40.60;;;;;;4995198;28;20026;-81
2021/05/06 15:45:06;;;;;;;6.18;4.25;;;16.80;40.90;;;;;;4981235;28;21521;-81
2021/05/06 15:47:32;;;;;;;5.70;2.90;;;16.70;40.90;;;;;;4987099;28;20113;-81
2021/05/06 15:49:57;;;;;;;5.30;2.05;;;16.70;41.70;;;;;;4989971;28;20121;-81
2021/05/06 15:52:25;;;;;;;5.78;1.70;;;16.70;41.20;;;;;;4983981;28;20022;-81
2021/05/06 15:54:51;;;;;;;3.13;1.10;;;16.60;41.00;;;;;;4995288;28;20459;-81
2021/05/06 15:57:17;;;;;;;3.95;1.50;;;16.50;41.00;;;;;;5008279;28;20057;-81
2021/05/06 15:59:42;;;;;;;6.72;1.25;;;16.50;41.20;;;;;;4987345;28;20018;-81
2021/05/06 16:02:09;;;;;;;8.07;1.27;;;16.50;41.10;;;;;;4986890;28;20026;-81